Time;durP1;ratioP1;P1;durP2;ratioP2;P2;SDS_P1;SDS_P2;PMS_P1;PMS_P2;Temp;Humidity;BMP_temperature;BMP_pressure;BME280_temperature;BME280_humidity;BME280_pressure;Samples;Min_cycle;Max_cycle;Signal;HPM_P1;HPM_P2
2023/10/05 00:01:13;;;;;;;13.88;8.15;;;;;;;9.69;85.37;100952.30;1829542;77;25390;-58
2023/10/05 00:03:44;;;;;;;16.67;8.13;;;;;;;9.66;85.78;100955.02;1829460;77;28493;-58
2023/10/05 00:06:14;;;;;;;13.10;8.13;;;;;;;9.63;85.68;100954.23;1829659;77;25394;-59
2023/10/05 00:08:50;;;;;;;11.70;8.70;;;;;;;9.60;85.92;100950.74;1829895;77;25538;-59
2023/10/05 00:11:24;;;;;;;16.25;8.65;;;;;;;9.59;86.33;100948.36;1829835;78;25613;-59
2023/10/05 00:13:58;;;;;;;13.88;8.03;;;;;;;9.59;86.47;100948.36;1829906;78;25603;-59
2023/10/05 00:16:39;;;;;;;12.33;8.08;;;;;;;9.57;86.54;100943.23;1829972;78;27468;-59
2023/10/05 00:18:58;;;;;;;13.68;8.43;;;;;;;9.53;86.68;100943.00;1826210;77;25789;-58
2023/10/05 00:21:26;;;;;;;14.40;8.25;;;;;;;9.50;86.82;100938.17;1829849;77;25513;-59
2023/10/05 00:23:54;;;;;;;15.20;8.00;;;;;;;9.48;87.21;100936.83;1829816;77;25538;-59
2023/10/05 00:26:28;;;;;;;11.78;8.18;;;;;;;9.46;87.24;100940.37;1829948;78;25527;-59
2023/10/05 00:29:04;;;;;;;17.00;8.63;;;;;;;9.41;87.31;100939.86;1829313;77;28029;-59
2023/10/05 00:31:24;;;;;;;15.53;8.58;;;;;;;9.37;87.31;100935.34;1828580;77;25500;-59
2023/10/05 00:33:56;;;;;;;;;;;;;;;9.34;87.62;100929.40;1832577;77;25580;-58
2023/10/05 00:36:26;;;;;;;14.85;8.85;;;;;;;9.30;87.71;100929.72;1829853;78;25528;-58
2023/10/05 00:38:53;;;;;;;13.32;8.83;;;;;;;9.28;87.76;100927.86;1829992;78;25532;-59
2023/10/05 00:41:19;;;;;;;13.28;8.68;;;;;;;9.27;87.86;100923.53;1829940;78;28055;-57
2023/10/05 00:43:48;;;;;;;15.95;9.05;;;;;;;9.25;87.94;100918.97;1829691;78;26258;-60
2023/10/05 00:46:14;;;;;;;11.75;9.08;;;;;;;9.24;87.91;100920.05;1829819;78;25498;-59
2023/10/05 00:48:56;;;;;;;12.98;8.95;;;;;;;9.23;88.12;100908.18;1829809;78;25467;-60
2023/10/05 00:51:17;;;;;;;;;;;;;;;9.21;88.21;100907.66;1830927;77;25450;-59
2023/10/05 00:53:43;;;;;;;18.17;9.33;;;;;;;9.19;88.36;100904.45;1830197;77;28145;-61
2023/10/05 00:56:12;;;;;;;14.73;9.00;;;;;;;9.15;88.13;100907.71;1829927;78;25864;-59
2023/10/05 00:58:55;;;;;;;14.70;9.53;;;;;;;9.13;88.33;100911.25;1829635;77;25578;-60
2023/10/05 01:02:03;;;;;;;20.05;9.80;;;;;;;9.10;88.48;100913.16;1829223;77;25396;-60
2023/10/05 01:06:40;;;;;;;16.37;9.33;;;;;;;9.08;88.83;100894.30;1747799;82;27855;-58
2023/10/05 01:09:04;;;;;;;14.38;9.63;;;;;;;9.08;88.91;100900.50;1746138;82;25848;-59
2023/10/05 01:11:42;;;;;;;;;;;;;;;9.08;88.99;100906.45;1750375;82;25686;-60
2023/10/05 01:14:00;;;;;;;;;;;;;;;9.09;88.99;100902.64;1750268;82;25693;-59
2023/10/05 01:16:31;;;;;;;14.33;9.35;;;;;;;9.07;89.20;100900.23;1747801;82;25521;-59
2023/10/05 01:18:55;;;;;;;19.07;9.38;;;;;;;9.06;89.39;100895.94;1747703;82;27482;-60
2023/10/05 01:21:25;;;;;;;14.55;8.93;;;;;;;9.07;89.30;100897.53;1747571;82;25828;-60
2023/10/05 01:23:50;;;;;;;15.58;8.90;;;;;;;9.07;89.35;100890.78;1747625;82;25600;-59
2023/10/05 01:26:16;;;;;;;14.47;9.15;;;;;;;9.09;89.52;100891.33;1747683;82;25501;-59
2023/10/05 01:28:44;;;;;;;15.23;8.88;;;;;;;9.10;89.56;100880.77;1747736;82;25518;-59
2023/10/05 01:31:16;;;;;;;12.28;8.65;;;;;;;9.11;89.53;100882.95;1747724;82;27501;-59
2023/10/05 01:33:46;;;;;;;12.23;8.78;;;;;;;9.11;89.55;100882.39;1747715;82;25562;-58
2023/10/05 01:36:19;;;;;;;12.00;9.13;;;;;;;9.12;89.74;100882.64;1747848;82;25539;-59
2023/10/05 01:38:47;;;;;;;16.10;9.30;;;;;;;9.12;89.77;100882.64;1747681;82;26204;-58
2023/10/05 01:41:20;;;;;;;18.67;9.65;;;;;;;9.13;89.95;100885.61;1747808;82;25442;-58
2023/10/05 01:43:42;;;;;;;18.82;9.33;;;;;;;9.11;89.91;100886.44;1790743;78;27620;-59
2023/10/05 01:46:14;;;;;;;15.35;9.20;;;;;;;9.12;90.19;100883.98;1829796;78;25814;-59
2023/10/05 01:48:41;;;;;;;12.23;8.90;;;;;;;9.13;90.12;100882.11;1829855;77;25590;-59
2023/10/05 01:51:15;;;;;;;16.30;8.18;;;;;;;9.12;89.95;100882.64;1830040;78;25574;-58
2023/10/05 01:53:40;;;;;;;16.10;9.13;;;;;;;9.12;89.99;100879.14;1829283;77;25427;-59
2023/10/05 01:56:20;;;;;;;13.60;8.90;;;;;;;9.13;90.23;100873.47;1829955;77;28023;-59
2023/10/05 01:58:43;;;;;;;17.42;8.90;;;;;;;9.14;90.13;100871.56;1829133;77;25663;-59
2023/10/05 02:01:11;;;;;;;17.60;8.85;;;;;;;9.13;90.15;100872.67;1829955;77;25553;-59
2023/10/05 02:03:38;;;;;;;13.98;9.40;;;;;;;9.15;90.28;100871.83;1829685;78;25588;-58
2023/10/05 02:06:11;;;;;;;12.68;9.50;;;;;;;9.15;90.22;100873.98;1830078;77;25389;-58
2023/10/05 02:08:36;;;;;;;14.45;8.73;;;;;;;9.14;90.37;100858.89;1829369;77;27839;-58
2023/10/05 02:11:04;;;;;;;14.65;8.85;;;;;;;9.14;90.37;100852.14;1829529;77;25479;-58
2023/10/05 02:13:31;;;;;;;14.95;8.85;;;;;;;9.13;90.45;100854.57;1829955;77;25383;-59
2023/10/05 02:15:59;;;;;;;15.38;8.70;;;;;;;9.13;90.42;100844.33;1829865;77;26095;-58
2023/10/05 02:18:30;;;;;;;15.05;8.68;;;;;;;9.13;90.38;100845.12;1830011;77;25422;-60
2023/10/05 02:21:09;;;;;;;14.95;9.40;;;;;;;9.12;90.32;100846.75;1829935;78;27542;-60
2023/10/05 02:23:42;;;;;;;12.90;8.55;;;;;;;9.10;90.32;100844.34;1830066;77;26145;-59
2023/10/05 02:26:23;;;;;;;12.30;8.68;;;;;;;9.08;90.42;100838.98;1813800;78;25471;-60
2023/10/05 02:28:41;;;;;;;14.65;9.05;;;;;;;9.07;90.78;100852.20;1828513;77;26484;-58
2023/10/05 02:31:12;;;;;;;14.60;8.90;;;;;;;9.05;90.63;100847.64;1829930;77;25466;-55
2023/10/05 02:33:38;;;;;;;14.47;9.15;;;;;;;9.06;90.79;100850.58;1829448;77;28084;-59
2023/10/05 02:38:47;;;;;;;15.53;8.85;;;;;;;9.01;90.69;100844.71;1829900;78;25674;-59
2023/10/05 02:41:08;;;;;;;12.98;9.65;;;;;;;8.98;90.84;100847.42;1828800;77;25497;-59
2023/10/05 02:43:39;;;;;;;15.40;9.43;;;;;;;8.96;90.80;100844.77;1829906;77;25630;-58
2023/10/05 02:46:09;;;;;;;16.30;9.58;;;;;;;8.95;91.14;100847.19;1829873;78;28799;-59
2023/10/05 02:48:43;;;;;;;13.43;9.00;;;;;;;8.93;90.90;100846.67;1829818;78;25376;-58
2023/10/05 02:51:11;;;;;;;17.37;9.65;;;;;;;8.91;91.12;100845.61;1829818;77;25558;-59
2023/10/05 02:53:56;;;;;;;15.72;9.60;;;;;;;8.88;91.11;100845.38;1829847;78;25519;-59
2023/10/05 02:56:33;;;;;;;15.10;9.55;;;;;;;8.88;91.15;100852.91;1828001;77;25363;-59
2023/10/05 02:59:07;;;;;;;14.65;9.60;;;;;;;8.85;91.24;100854.83;1828543;77;27509;-56
2023/10/05 03:01:36;;;;;;;13.20;8.95;;;;;;;8.84;91.57;100845.69;1828711;77;25370;-59
2023/10/05 03:04:09;;;;;;;14.10;9.23;;;;;;;8.83;91.49;100847.56;1828618;77;25645;-58
2023/10/05 03:06:33;;;;;;;15.23;9.10;;;;;;;8.81;91.85;100852.44;1822950;78;26227;-58
2023/10/05 05:32:44;;;;;;;15.88;10.70;;;;;;;7.98;100.00;100742.27;1868308;76;35059;-62
2023/10/05 05:35:15;;;;;;;19.80;12.98;;;;;;;7.95;100.00;100734.73;1824564;78;25387;-63
2023/10/05 05:37:42;;;;;;;28.75;13.40;;;;;;;7.97;100.00;100728.00;1824458;78;27702;-63
2023/10/05 05:40:12;;;;;;;16.52;11.15;;;;;;;8.07;100.00;100728.47;1824374;78;25380;-63
2023/10/05 05:42:45;;;;;;;17.98;12.45;;;;;;;8.16;100.00;100730.02;1824522;78;25382;-63
2023/10/05 05:45:16;;;;;;;27.95;13.18;;;;;;;8.25;100.00;100735.61;1824482;78;25470;-63
2023/10/05 05:47:44;;;;;;;19.15;12.45;;;;;;;8.32;100.00;100728.78;1824551;78;25531;-63
2023/10/05 05:50:23;;;;;;;18.48;11.48;;;;;;;8.41;100.00;100728.45;1824475;78;27382;-63
2023/10/05 05:52:53;;;;;;;17.90;10.72;;;;;;;8.50;100.00;100725.98;1824383;78;26285;-63
2023/10/05 05:55:23;;;;;;;20.52;12.40;;;;;;;8.60;100.00;100727.22;1824144;78;25556;-62
2023/10/05 05:57:50;;;;;;;21.82;11.70;;;;;;;8.69;100.00;100722.56;1823566;78;25534;-63
2023/10/05 06:00:19;;;;;;;;;;;;;;;8.79;100.00;100725.16;1807386;78;25614;-63
2023/10/05 06:02:46;;;;;;;22.87;10.77;;;;;;;8.90;100.00;100721.23;1824703;77;27498;-61
2023/10/05 06:05:14;;;;;;;18.42;9.98;;;;;;;9.01;100.00;100725.98;1824383;78;25514;-62
2023/10/05 06:07:44;;;;;;;19.70;10.20;;;;;;;9.13;100.00;100723.67;1824476;78;25573;-62
2023/10/05 06:10:15;;;;;;;19.15;10.55;;;;;;;9.25;100.00;100721.91;1824361;78;25649;-62
2023/10/05 06:12:46;;;;;;;18.23;10.75;;;;;;;9.38;100.00;100724.47;1824511;78;25531;-62
2023/10/05 06:15:16;;;;;;;21.33;10.53;;;;;;;9.53;99.99;100729.66;1824571;78;28152;-64
2023/10/05 06:17:43;;;;;;;16.80;9.90;;;;;;;9.67;99.92;100722.98;1822894;78;25464;-63
2023/10/05 06:20:14;;;;;;;;;;;;;;;9.83;99.62;100726.25;1827392;78;25382;-63
2023/10/05 06:22:46;;;;;;;16.80;8.83;;;;;;;10.00;100.00;100724.38;1824606;78;25737;-62
2023/10/05 06:25:17;;;;;;;18.48;9.65;;;;;;;10.17;99.95;100723.84;1824598;78;25555;-62
2023/10/05 06:27:47;;;;;;;16.62;9.45;;;;;;;10.33;98.85;100706.83;1824548;78;27523;-62
2023/10/05 06:30:16;;;;;;;16.30;8.80;;;;;;;10.45;97.87;100708.53;1824520;78;25534;-64
2023/10/05 06:32:44;;;;;;;12.47;8.73;;;;;;;10.57;97.40;100709.94;1824698;77;25492;-63
2023/10/05 06:35:11;;;;;;;22.37;9.30;;;;;;;10.67;96.90;100712.45;1824442;78;25697;-63
2023/10/05 06:37:41;;;;;;;23.80;12.80;;;;;;;10.78;96.68;100709.02;1824483;78;25188;-63
2023/10/05 06:40:12;;;;;;;20.60;9.28;;;;;;;10.87;96.00;100704.50;1823508;78;27673;-63
2023/10/05 06:42:42;;;;;;;22.35;13.90;;;;;;;10.95;95.27;100702.45;1824226;78;26048;-65
2023/10/05 06:45:17;;;;;;;11.70;7.85;;;;;;;11.01;94.72;100703.94;1811981;78;25564;-73
2023/10/05 06:47:48;;;;;;;18.98;8.25;;;;;;;11.11;95.14;100708.34;1823740;78;25809;-73
2023/10/05 06:50:17;;;;;;;12.20;8.23;;;;;;;11.20;94.84;100704.38;1823367;76;25584;-67
2023/10/05 06:52:52;;;;;;;15.90;8.35;;;;;;;11.33;94.58;100705.47;1773913;80;28136;-68
2023/10/05 06:57:50;;;;;;;14.13;8.70;;;;;;;11.51;93.64;100718.61;1750961;78;25291;-73
2023/10/05 07:00:21;;;;;;;13.43;8.25;;;;;;;11.60;92.99;100720.86;1753962;81;25394;-75
2023/10/05 07:02:58;;;;;;;12.85;7.60;;;;;;;11.71;92.90;100712.77;1752629;81;25476;-69
2023/10/05 07:05:20;;;;;;;16.12;8.33;;;;;;;11.82;93.01;100713.32;1749807;81;27498;-69
2023/10/05 07:07:47;;;;;;;15.30;8.23;;;;;;;11.94;92.80;100710.89;1752520;81;26139;-70
2023/10/05 07:10:15;;;;;;;15.18;8.75;;;;;;;12.10;91.93;100710.52;1752636;81;25533;-67
2023/10/05 07:12:46;;;;;;;15.75;7.53;;;;;;;12.27;92.09;100703.84;1752511;81;25875;-67
2023/10/05 07:15:15;;;;;;;15.28;7.53;;;;;;;12.50;92.07;100697.83;1752628;81;25438;-67
2023/10/05 07:17:42;;;;;;;12.70;6.67;;;;;;;12.75;90.96;100702.31;1752562;81;28148;-67
2023/10/05 07:20:16;;;;;;;15.50;7.05;;;;;;;13.06;91.04;100698.20;1752507;81;25665;-67
2023/10/05 07:22:41;;;;;;;11.80;6.60;;;;;;;13.32;89.54;100690.69;1720881;83;25612;-66
2023/10/05 07:25:12;;;;;;;13.43;6.42;;;;;;;13.54;87.32;100696.55;1752528;81;25547;-66
2023/10/05 07:27:41;;;;;;;12.60;7.05;;;;;;;13.58;85.79;100687.98;1752615;81;25467;-65
2023/10/05 07:30:09;;;;;;;15.72;6.90;;;;;;;13.63;84.73;100690.55;1752734;81;27516;-65
2023/10/05 07:32:36;;;;;;;12.20;6.45;;;;;;;13.67;83.55;100690.70;1752480;81;25643;-65
2023/10/05 07:35:05;;;;;;;11.25;5.92;;;;;;;13.67;83.12;100698.06;1752496;81;25460;-66
2023/10/05 07:37:34;;;;;;;10.70;5.50;;;;;;;13.68;82.65;100690.95;1752573;81;25471;-64
2023/10/05 07:40:01;;;;;;;14.87;6.03;;;;;;;13.69;82.65;100684.95;1752736;81;25588;-65
2023/10/05 07:42:31;;;;;;;13.18;6.08;;;;;;;13.71;82.65;100681.37;1752557;81;28172;-68
2023/10/05 07:44:59;;;;;;;13.98;5.58;;;;;;;13.73;82.03;100686.71;1752549;81;25747;-67
2023/10/05 07:47:26;;;;;;;13.78;6.35;;;;;;;13.82;82.72;100683.45;1752723;81;25406;-67
2023/10/05 07:49:55;;;;;;;13.35;6.62;;;;;;;13.93;81.73;100683.91;1752712;81;25794;-67
2023/10/05 07:52:23;;;;;;;17.37;6.17;;;;;;;14.02;81.60;100675.73;1752982;81;25579;-67
2023/10/05 07:54:51;;;;;;;10.40;5.70;;;;;;;14.06;79.31;100682.68;1752628;81;28247;-68
2023/10/05 07:57:18;;;;;;;10.72;6.00;;;;;;;14.10;79.80;100676.85;1752427;81;25675;-65
2023/10/05 07:59:45;;;;;;;15.20;5.58;;;;;;;14.14;78.30;100670.42;1752612;81;25527;-64
2023/10/05 08:02:14;;;;;;;11.75;5.72;;;;;;;14.24;78.19;100669.28;1752462;81;25886;-65
2023/10/05 08:04:41;;;;;;;9.73;5.83;;;;;;;14.38;78.51;100667.14;1752575;81;25575;-63
2023/10/05 08:07:08;;;;;;;12.50;5.65;;;;;;;14.64;78.71;100660.86;1752543;81;27471;-63
2023/10/05 08:09:35;;;;;;;11.08;6.95;;;;;;;15.03;79.31;100659.44;1752435;81;25674;-65
2023/10/05 08:12:04;;;;;;;10.95;5.67;;;;;;;15.43;77.51;100673.43;1752453;81;25697;-66
2023/10/05 08:14:32;;;;;;;13.88;5.62;;;;;;;15.65;76.61;100648.33;1752501;81;25531;-62
2023/10/05 08:16:59;;;;;;;10.30;5.53;;;;;;;15.79;73.29;100652.16;1752527;81;25622;-65
2023/10/05 08:19:26;;;;;;;12.90;5.53;;;;;;;15.89;73.72;100665.95;1752470;81;27819;-64
2023/10/05 08:21:53;;;;;;;10.28;5.75;;;;;;;16.14;72.18;100665.44;1752463;81;25591;-64
2023/10/05 08:24:24;;;;;;;10.20;5.05;;;;;;;16.29;71.32;100648.98;1752524;81;25397;-64
2023/10/05 08:26:56;;;;;;;15.23;5.95;;;;;;;16.42;69.13;100654.70;1752483;81;25418;-62
2023/10/05 08:29:23;;;;;;;10.00;5.70;;;;;;;16.49;71.02;100641.84;1722595;83;25642;-63
2023/10/05 08:31:50;;;;;;;10.28;5.28;;;;;;;16.71;70.77;100639.23;1752472;81;27198;-64
2023/10/05 08:34:21;;;;;;;11.10;5.08;;;;;;;16.90;68.46;100648.24;1752444;81;26420;-63
2023/10/05 08:36:53;;;;;;;11.33;5.70;;;;;;;16.87;67.82;100639.36;1751965;81;25609;-65
2023/10/05 08:39:25;;;;;;;10.55;5.42;;;;;;;16.64;66.43;100646.63;1752471;81;25443;-65
2023/10/05 08:42:02;;;;;;;11.85;5.35;;;;;;;16.35;65.55;100643.55;1722580;83;25701;-65
2023/10/05 08:44:30;;;;;;;;;;;;;;;16.11;67.54;100642.36;1752794;81;27443;-66
2023/10/05 08:46:58;;;;;;;11.05;4.78;;;;;;;16.00;67.68;100633.79;1719636;83;25692;-65
2023/10/05 08:49:27;;;;;;;8.20;4.95;;;;;;;15.92;67.58;100636.61;1752523;81;25553;-65
2023/10/05 08:51:54;;;;;;;12.47;5.10;;;;;;;15.89;68.81;100629.91;1752583;81;25629;-65
2023/10/05 08:54:27;;;;;;;12.40;4.85;;;;;;;16.05;69.20;100630.06;1752546;81;25392;-65
2023/10/05 08:56:52;;;;;;;9.15;4.10;;;;;;;16.20;69.66;100635.44;1751753;80;27846;-65
2023/10/05 08:59:19;;;;;;;9.50;4.72;;;;;;;16.28;67.80;100632.37;1725390;82;26222;-65
2023/10/05 09:01:46;;;;;;;11.18;4.78;;;;;;;16.24;67.90;100626.80;1719487;83;25599;-65
2023/10/05 09:07:08;;;;;;;9.05;4.35;;;;;;;16.38;67.51;100636.84;1725441;83;25437;-65
2023/10/05 09:09:39;;;;;;;13.65;5.55;;;;;;;16.68;64.87;100627.63;1718292;83;27412;-65
2023/10/05 09:12:38;;;;;;;14.28;4.40;;;;;;;16.82;65.57;100636.25;1736238;82;26195;-65
2023/10/05 09:15:18;;;;;;;9.23;4.28;;;;;;;16.80;64.86;100635.26;1736461;82;25379;-66
2023/10/05 09:20:38;;;;;;;13.58;5.00;;;;;;;16.72;63.52;100625.24;1736558;82;25400;-64
2023/10/05 09:23:09;;;;;;;8.00;3.95;;;;;;;16.67;63.08;100625.47;1755757;81;27814;-65
2023/10/05 09:25:45;;;;;;;8.58;4.10;;;;;;;16.58;63.91;100628.87;1755607;81;25382;-66
2023/10/05 09:28:13;;;;;;;9.05;4.62;;;;;;;16.57;64.78;100621.25;1755499;81;25447;-65
2023/10/05 09:30:59;;;;;;;10.43;4.40;;;;;;;16.73;65.36;100610.42;1755789;81;25594;-64
2023/10/05 09:33:33;;;;;;;8.33;4.08;;;;;;;16.76;63.97;100615.21;1755714;81;25637;-64
2023/10/05 09:36:07;;;;;;;10.55;4.83;;;;;;;16.75;63.72;100623.74;1755026;81;28314;-67
2023/10/05 09:38:40;;;;;;;11.63;6.72;;;;;;;16.76;63.87;100614.42;1755658;81;25942;-66
2023/10/05 09:41:09;;;;;;;9.20;4.25;;;;;;;16.78;63.52;100618.97;1755707;81;25469;-64
2023/10/05 09:43:39;;;;;;;12.20;5.35;;;;;;;16.79;63.49;100609.07;1755645;81;25576;-65
2023/10/05 09:46:09;;;;;;;10.23;4.62;;;;;;;16.79;63.06;100619.99;1755709;81;25449;-59
2023/10/05 09:48:38;;;;;;;9.55;4.35;;;;;;;16.67;61.97;100623.29;1755688;81;27861;-61
2023/10/05 09:51:14;;;;;;;12.37;4.42;;;;;;;16.53;62.53;100616.27;1755709;81;25376;-61
2023/10/05 09:53:39;;;;;;;10.80;4.62;;;;;;;16.40;61.95;100609.20;1754356;81;25464;-59
2023/10/05 09:56:11;;;;;;;9.38;4.33;;;;;;;16.31;62.63;100615.31;1755557;81;25505;-58
2023/10/05 09:58:39;;;;;;;13.18;4.30;;;;;;;16.24;62.97;100607.69;1754981;81;25646;-59
2023/10/05 10:01:13;;;;;;;8.25;4.12;;;;;;;16.22;63.30;100603.14;1747754;82;27746;-59
2023/10/05 10:03:45;;;;;;;11.88;4.08;;;;;;;16.24;64.17;100602.23;1748217;82;25812;-62
2023/10/05 10:06:18;;;;;;;14.53;7.03;;;;;;;16.32;63.69;100595.88;1723444;82;25676;-61
2023/10/05 10:08:55;;;;;;;13.18;5.47;;;;;;;16.32;63.60;100601.91;1748313;81;25637;-61
2023/10/05 10:11:31;;;;;;;66.37;51.75;;;;;;;16.35;63.18;100588.95;1748410;81;25451;-61
2023/10/05 10:14:09;;;;;;;30.85;20.90;;;;;;;16.39;64.00;100589.27;1747984;82;27837;-61
2023/10/05 10:16:47;;;;;;;8.48;4.70;;;;;;;16.51;63.89;100588.48;1748365;82;25603;-62
2023/10/05 10:23:18;;;;;;;9.05;4.17;;;;;;;16.44;63.07;100592.36;1747391;82;25679;-69
2023/10/05 10:25:46;;;;;;;9.30;4.10;;;;;;;16.27;63.06;100585.19;1722640;82;25604;-67
2023/10/05 10:28:39;;;;;;;10.05;4.22;;;;;;;16.17;63.43;100590.51;1748522;81;28517;-67
2023/10/05 10:31:29;;;;;;;7.25;4.00;;;;;;;16.09;62.56;100575.06;1745574;82;27256;-66
2023/10/05 10:33:52;;;;;;;11.12;3.90;;;;;;;16.02;63.07;100590.63;1746954;82;25434;-66
2023/10/05 10:36:26;;;;;;;9.13;4.17;;;;;;;16.02;64.04;100569.34;1748296;82;25601;-65
2023/10/05 10:38:59;;;;;;;10.78;3.90;;;;;;;16.00;63.54;100569.68;1735387;82;25587;-66
2023/10/05 10:41:30;;;;;;;8.58;3.80;;;;;;;16.03;63.66;100569.01;1747836;82;28214;-66
2023/10/05 10:43:56;;;;;;;8.40;3.22;;;;;;;16.02;63.10;100572.89;1747616;82;25512;-67
2023/10/05 10:46:30;;;;;;;7.17;3.42;;;;;;;16.05;63.15;100570.82;1748346;82;25627;-67
2023/10/05 10:49:07;;;;;;;12.28;3.90;;;;;;;16.04;61.85;100572.55;1748325;82;25638;-66
2023/10/05 10:51:38;;;;;;;8.15;3.67;;;;;;;16.02;62.53;100564.70;1748339;82;25459;-66
2023/10/05 10:54:17;;;;;;;8.13;3.95;;;;;;;16.06;62.93;100563.45;1748292;82;28553;-68
2023/10/05 10:56:45;;;;;;;9.65;3.70;;;;;;;16.05;62.30;100555.81;1748535;82;25429;-68
2023/10/05 10:59:15;;;;;;;9.43;4.08;;;;;;;16.04;62.33;100550.73;1754055;81;25613;-68
2023/10/05 11:01:45;;;;;;;13.75;3.50;;;;;;;16.02;62.10;100552.42;1756433;81;25547;-65
2023/10/05 11:04:23;;;;;;;9.18;3.67;;;;;;;15.97;62.06;100542.28;1756332;81;25546;-68
2023/10/05 11:06:48;;;;;;;8.45;4.40;;;;;;;15.95;61.93;100534.44;1729613;81;26024;-67
2023/10/05 11:09:15;;;;;;;11.38;4.30;;;;;;;15.89;61.38;100535.81;1756492;81;25665;-67
2023/10/05 11:11:44;;;;;;;10.55;4.25;;;;;;;15.84;61.75;100536.03;1756352;81;26920;-65
2023/10/05 11:14:21;;;;;;;11.53;3.98;;;;;;;15.82;61.81;100525.45;1756259;81;25572;-66
2023/10/05 11:16:59;;;;;;;11.38;3.37;;;;;;;15.85;62.41;100522.61;1756201;81;25589;-66
2023/10/05 11:19:24;;;;;;;14.33;4.15;;;;;;;15.94;62.10;100527.98;1754310;81;27910;-67
2023/10/05 11:21:46;;;;;;;8.83;3.85;;;;;;;15.99;61.62;100531.85;1755017;81;25713;-66
2023/10/05 11:24:18;;;;;;;10.72;4.58;;;;;;;15.98;61.25;100520.12;1756297;81;25483;-67
2023/10/05 11:29:28;;;;;;;8.00;3.85;;;;;;;16.04;60.83;100536.51;1756450;81;32729;-65
2023/10/05 11:32:12;;;;;;;13.30;4.47;;;;;;;16.09;61.70;100516.95;1756284;81;27510;-69
2023/10/05 11:34:39;;;;;;;9.13;4.30;;;;;;;16.15;61.51;100514.23;1753524;81;25402;-69
2023/10/05 11:37:11;;;;;;;10.32;3.72;;;;;;;16.14;61.59;100510.72;1755280;81;25461;-69
2023/10/05 11:39:39;;;;;;;11.15;3.80;;;;;;;16.19;61.56;100513.77;1754684;81;26403;-68
2023/10/05 11:42:04;;;;;;;11.33;3.72;;;;;;;16.17;60.97;100487.39;1755708;81;25638;-68
2023/10/05 11:44:32;;;;;;;8.28;3.70;;;;;;;16.16;60.85;100487.18;1756276;81;27630;-68
2023/10/05 11:46:58;;;;;;;9.40;3.47;;;;;;;16.17;60.76;100498.30;1756196;81;25652;-68
2023/10/05 11:49:31;;;;;;;10.90;3.60;;;;;;;16.17;60.67;100493.63;1756305;81;25445;-69
2023/10/05 11:52:03;;;;;;;8.28;3.40;;;;;;;16.17;60.65;100495.00;1756276;81;25550;-68
2023/10/05 11:54:33;;;;;;;8.63;4.00;;;;;;;16.18;60.35;100493.09;1756431;81;25396;-69
2023/10/05 11:57:01;;;;;;;13.10;4.25;;;;;;;16.15;59.69;100485.00;1756292;81;28356;-69
2023/10/05 11:59:31;;;;;;;11.43;4.20;;;;;;;16.13;60.03;100479.67;1749532;81;25675;-68
2023/10/05 12:01:59;;;;;;;9.80;3.70;;;;;;;16.15;60.19;100481.48;1746168;82;25605;-68
2023/10/05 12:04:26;;;;;;;9.40;3.52;;;;;;;16.18;60.06;100480.23;1746102;82;25818;-68
2023/10/05 12:07:02;;;;;;;10.25;3.62;;;;;;;16.19;58.87;100484.56;1746177;82;25650;-68
2023/10/05 12:09:33;;;;;;;10.72;3.80;;;;;;;16.18;59.13;100461.70;1743900;82;28500;-68
2023/10/05 12:12:10;;;;;;;7.83;3.83;;;;;;;16.22;59.74;100472.15;1746117;82;25579;-68
2023/10/05 12:14:33;;;;;;;9.35;3.90;;;;;;;16.29;60.11;100464.75;1745500;82;25594;-68
2023/10/05 12:16:59;;;;;;;8.53;3.83;;;;;;;16.36;59.11;100467.69;1746175;82;26110;-68
2023/10/05 12:19:29;;;;;;;5.95;3.17;;;;;;;16.35;59.41;100483.86;1746142;82;25401;-68
2023/10/05 12:22:02;;;;;;;13.28;4.40;;;;;;;16.31;59.20;100482.39;1746340;82;28133;-67
2023/10/05 12:24:30;;;;;;;9.63;3.80;;;;;;;16.29;59.11;100480.55;1746063;82;25414;-68
2023/10/05 12:26:59;;;;;;;9.15;3.85;;;;;;;16.28;59.27;100465.33;1746341;82;25414;-67
2023/10/05 12:29:28;;;;;;;16.25;4.70;;;;;;;16.28;59.63;100469.97;1746231;82;35196;-67
2023/10/05 12:32:01;;;;;;;13.50;4.17;;;;;;;16.31;59.76;100470.66;1746100;82;25407;-67
2023/10/05 12:34:23;;;;;;;17.40;4.40;;;;;;;16.34;59.81;100472.13;1745231;82;27809;-67
2023/10/05 12:36:53;;;;;;;8.35;4.00;;;;;;;16.35;59.68;100460.08;1746046;82;25538;-68
2023/10/05 12:39:27;;;;;;;10.28;4.28;;;;;;;16.33;59.67;100471.92;1746135;82;25454;-67
2023/10/05 12:41:50;;;;;;;14.65;4.47;;;;;;;16.27;58.93;100462.36;1745537;82;26033;-67
2023/10/05 12:44:18;;;;;;;11.20;4.75;;;;;;;16.22;59.37;100469.42;1746162;82;25480;-69
2023/10/05 12:46:47;;;;;;;12.20;4.03;;;;;;;16.16;59.62;100460.68;1746138;82;27328;-69
2023/10/05 12:49:17;;;;;;;;;;;;;;;16.16;59.96;100455.80;1748677;82;25836;-68
2023/10/05 12:51:52;;;;;;;97.75;72.32;;;;;;;16.16;59.99;100437.48;1746125;82;25492;-68
2023/10/05 12:54:28;;;;;;;15.08;10.43;;;;;;;16.14;59.95;100448.50;1745034;82;25602;-67
2023/10/05 12:57:14;;;;;;;14.35;4.90;;;;;;;16.14;60.05;100455.32;1745420;82;25196;-68
2023/10/05 13:00:19;;;;;;;17.73;7.55;;;;;;;16.14;60.03;100452.05;1696527;84;28056;-67
2023/10/05 13:02:33;;;;;;;13.88;4.37;;;;;;;16.15;60.07;100448.73;1591177;90;25513;-66
2023/10/05 13:04:59;;;;;;;13.00;4.62;;;;;;;16.16;60.32;100451.13;1593040;90;25666;-67
2023/10/05 13:07:30;;;;;;;9.78;4.47;;;;;;;16.15;60.16;100446.80;1593005;90;25646;-68
2023/10/05 13:10:08;;;;;;;10.50;4.00;;;;;;;16.17;60.46;100445.88;1593506;88;25675;-66
2023/10/05 13:12:22;;;;;;;7.10;3.58;;;;;;;16.17;59.76;100452.70;1595339;88;27856;-66
2023/10/05 13:14:48;;;;;;;12.37;4.22;;;;;;;16.17;60.20;100435.55;1593036;90;25506;-65
2023/10/05 13:17:15;;;;;;;11.80;4.10;;;;;;;16.18;60.02;100445.33;1593191;90;25484;-65
2023/10/05 13:19:41;;;;;;;10.40;4.15;;;;;;;16.16;60.26;100452.49;1593005;90;25869;-66
2023/10/05 13:22:11;;;;;;;7.00;4.17;;;;;;;16.16;59.81;100458.53;1593122;90;25573;-65
2023/10/05 13:24:36;;;;;;;9.85;3.87;;;;;;;16.14;59.91;100441.68;1593280;88;27521;-66
2023/10/05 13:27:07;;;;;;;23.75;16.57;;;;;;;16.13;59.71;100452.39;1592991;90;25682;-65
2023/10/05 13:29:36;;;;;;;9.73;4.45;;;;;;;16.12;60.04;100454.88;1593212;90;25233;-65
2023/10/05 13:32:02;;;;;;;12.70;4.85;;;;;;;16.08;59.75;100453.98;1593154;88;26386;-65
2023/10/05 13:34:33;;;;;;;11.65;4.70;;;;;;;16.05;60.04;100448.05;1593060;90;25611;-65
2023/10/05 13:36:59;;;;;;;15.95;4.65;;;;;;;16.07;60.15;100447.71;1639629;85;27857;-65
2023/10/05 13:39:26;;;;;;;11.10;4.20;;;;;;;16.04;60.00;100454.66;1686511;83;25721;-66
2023/10/05 13:42:05;;;;;;;11.43;4.22;;;;;;;15.99;59.91;100459.56;1712063;83;25411;-67
2023/10/05 13:44:21;;;;;;;9.30;4.25;;;;;;;15.94;60.13;100446.94;1678236;84;25645;-65
2023/10/05 13:46:53;;;;;;;8.60;4.05;;;;;;;15.85;59.60;100466.14;1732255;82;25399;-65
2023/10/05 13:49:16;;;;;;;12.25;3.83;;;;;;;15.80;59.93;100464.19;1711535;82;27920;-64
2023/10/05 13:51:44;;;;;;;8.48;3.98;;;;;;;15.77;60.31;100439.77;1729997;82;25501;-66
2023/10/05 13:54:15;;;;;;;10.40;3.67;;;;;;;15.74;60.65;100466.33;1712048;83;25413;-66
2023/10/05 13:56:41;;;;;;;13.03;3.77;;;;;;;15.71;60.70;100460.75;1732286;82;25846;-66
2023/10/05 13:59:26;;;;;;;8.65;3.65;;;;;;;15.62;60.75;100469.05;1633014;86;25382;-65
2023/10/05 14:02:00;;;;;;;11.43;4.42;;;;;;;15.50;61.11;100460.27;1642850;87;28565;-64
2023/10/05 14:04:30;;;;;;;12.03;4.03;;;;;;;15.45;61.92;100459.12;1633091;86;25492;-64
2023/10/05 14:06:56;;;;;;;6.17;3.33;;;;;;;15.35;62.42;100458.98;1642619;86;25494;-65
2023/10/05 14:09:26;;;;;;;8.35;4.20;;;;;;;15.30;63.01;100460.56;1634019;87;25839;-65
2023/10/05 14:11:55;;;;;;;9.73;3.77;;;;;;;15.25;63.37;100466.22;1643002;87;25655;-66
2023/10/05 14:14:25;;;;;;;10.58;3.72;;;;;;;15.18;63.61;100459.95;1658950;86;32736;-66
2023/10/05 14:16:55;;;;;;;8.98;4.25;;;;;;;15.15;64.28;100457.11;1642847;87;25738;-66
2023/10/05 14:19:30;;;;;;;9.28;4.20;;;;;;;15.11;64.76;100462.44;1634043;87;25689;-65